createdAt,value
2016-09-12T00:00:42.026Z,0
2016-09-12T00:01:41.932Z,0
2016-09-12T00:02:41.939Z,0
2016-09-12T00:03:42.224Z,0
2016-09-12T00:04:41.920Z,0
2016-09-12T00:05:41.938Z,0
2016-09-12T00:06:41.923Z,0
2016-09-12T00:07:41.909Z,0
2016-09-12T00:08:41.912Z,0
2016-09-12T00:09:41.853Z,0
2016-09-12T00:10:42.203Z,0
2016-09-12T00:11:41.839Z,0
2016-09-12T00:12:41.855Z,0
2016-09-12T00:13:41.823Z,0
2016-09-12T00:14:41.891Z,0
2016-09-12T00:15:41.829Z,0
2016-09-12T00:16:42.148Z,0
2016-09-12T00:17:41.782Z,0
2016-09-12T00:18:41.789Z,0
2016-09-12T00:19:41.777Z,0
2016-09-12T00:20:42.217Z,0
2016-09-12T00:21:41.767Z,0
2016-09-12T00:22:41.977Z,0
2016-09-12T00:23:42.061Z,0
2016-09-12T00:24:41.748Z,0
2016-09-12T00:25:41.715Z,0
2016-09-12T00:26:42.377Z,0
2016-09-12T00:27:42.048Z,0
2016-09-12T00:28:42.405Z,0
2016-09-12T00:29:42.832Z,0
2016-09-12T00:30:42.108Z,0
2016-09-12T00:31:42.020Z,0
2016-09-12T00:32:42.019Z,0
2016-09-12T00:33:41.662Z,0
2016-09-12T00:34:41.684Z,0
2016-09-12T00:35:41.649Z,0
2016-09-12T00:36:41.974Z,0
2016-09-12T00:37:41.928Z,0
2016-09-12T00:38:41.613Z,0
2016-09-12T00:39:41.963Z,0
2016-09-12T00:40:41.596Z,0
2016-09-12T00:41:41.919Z,0
2016-09-12T00:42:41.763Z,0
2016-09-12T00:43:41.640Z,0
2016-09-12T00:44:41.948Z,0
2016-09-12T00:45:42.190Z,0
2016-09-12T00:46:41.903Z,0
2016-09-12T00:47:41.557Z,0
2016-09-12T00:48:41.593Z,0
2016-09-12T00:49:41.855Z,0
2016-09-12T00:50:41.908Z,0
2016-09-12T00:51:41.527Z,0
2016-09-12T00:52:41.503Z,0
2016-09-12T00:53:42.161Z,0
2016-09-12T00:54:41.492Z,0
2016-09-12T00:55:41.477Z,0
2016-09-12T00:56:41.460Z,0
2016-09-12T00:57:42.095Z,0
2016-09-12T00:58:41.805Z,0
2016-09-12T00:59:41.444Z,0
2016-09-12T01:00:41.875Z,0
2016-09-12T01:01:42.060Z,0
2016-09-12T01:02:41.439Z,0
2016-09-12T01:03:41.418Z,0
2016-09-12T01:04:41.408Z,0
2016-09-12T01:05:41.774Z,0
2016-09-12T01:06:42.037Z,0
2016-09-12T01:07:41.441Z,0
2016-09-12T01:08:42.022Z,0
2016-09-12T01:09:41.690Z,0
2016-09-12T01:10:41.492Z,0
2016-09-12T01:11:41.700Z,0
2016-09-12T01:12:42.063Z,0
2016-09-12T01:13:42.084Z,0
2016-09-12T01:14:41.319Z,0
2016-09-12T01:15:41.491Z,0
2016-09-12T01:16:41.331Z,0
2016-09-12T01:17:41.313Z,0
2016-09-12T01:18:42.259Z,0
2016-09-12T01:19:41.596Z,0
2016-09-12T01:20:41.628Z,0
2016-09-12T01:21:41.600Z,0
2016-09-12T01:22:42.025Z,0
2016-09-12T01:23:41.253Z,0
2016-09-12T01:24:41.551Z,0
2016-09-12T01:25:41.224Z,0
2016-09-12T01:26:41.413Z,0
2016-09-12T01:27:41.525Z,0
2016-09-12T01:28:41.267Z,0
2016-09-12T01:29:41.823Z,0
2016-09-12T01:30:41.188Z,0
2016-09-12T01:31:41.679Z,0
2016-09-12T01:32:41.486Z,0
2016-09-12T01:33:41.176Z,0
2016-09-12T01:34:41.827Z,0
2016-09-12T01:35:41.455Z,0
2016-09-12T01:36:41.157Z,0
2016-09-12T01:37:41.449Z,0
2016-09-12T01:38:41.448Z,0
2016-09-12T01:39:41.137Z,0
2016-09-12T01:40:41.450Z,0
2016-09-12T01:41:41.608Z,0
2016-09-12T01:42:41.708Z,0
2016-09-12T01:43:41.085Z,0
2016-09-12T01:44:41.387Z,0
2016-09-12T01:45:41.375Z,0
2016-09-12T01:46:41.079Z,0
2016-09-12T01:47:41.074Z,0
2016-09-12T01:48:42.126Z,0
2016-09-12T01:49:41.051Z,0
2016-09-12T01:50:41.012Z,0
2016-09-12T01:51:41.652Z,0
2016-09-12T01:52:41.448Z,0
2016-09-12T01:53:40.996Z,0
2016-09-12T01:54:41.005Z,0
2016-09-12T01:55:40.965Z,0
2016-09-12T01:56:40.986Z,0
2016-09-12T01:57:40.982Z,0
2016-09-12T01:58:41.281Z,0
2016-09-12T01:59:40.951Z,0
2016-09-12T02:00:41.818Z,0
2016-09-12T02:01:41.251Z,0
2016-09-12T02:02:41.263Z,0
2016-09-12T02:03:40.918Z,0
2016-09-12T02:04:40.903Z,0
2016-09-12T02:05:41.315Z,0
2016-09-12T02:06:40.901Z,0
2016-09-12T02:07:41.197Z,0
2016-09-12T02:08:41.212Z,0
2016-09-12T02:09:41.168Z,0
2016-09-12T02:10:41.132Z,0
2016-09-12T02:11:41.211Z,0
2016-09-12T02:12:40.837Z,0
2016-09-12T02:13:40.930Z,0
2016-09-12T02:14:41.117Z,0
2016-09-12T02:15:41.139Z,0
2016-09-12T02:16:41.126Z,0
2016-09-12T02:17:40.789Z,0
2016-09-12T02:18:41.431Z,0
2016-09-12T02:19:40.785Z,0
2016-09-12T02:20:40.768Z,0
2016-09-12T02:21:41.086Z,0
2016-09-12T02:22:41.304Z,0
2016-09-12T02:23:40.773Z,0
2016-09-12T02:24:41.031Z,0
2016-09-12T02:25:41.029Z,0
2016-09-12T02:26:40.727Z,0
2016-09-12T02:27:40.700Z,0
2016-09-12T02:28:40.693Z,0
2016-09-12T02:29:40.701Z,0
2016-09-12T02:30:40.709Z,0
2016-09-12T02:31:40.709Z,0
2016-09-12T02:32:41.323Z,0
2016-09-12T02:33:40.642Z,0
2016-09-12T02:34:40.698Z,0
2016-09-12T02:35:40.668Z,0
2016-09-12T02:36:40.699Z,0
2016-09-12T02:37:40.962Z,0
2016-09-12T02:38:40.645Z,0
2016-09-12T02:39:40.686Z,0
2016-09-12T02:40:40.594Z,0
2016-09-12T02:41:40.573Z,0
2016-09-12T02:42:40.903Z,0
2016-09-12T02:43:41.189Z,0
2016-09-12T02:44:40.883Z,0
2016-09-12T02:45:40.568Z,0
2016-09-12T02:46:40.846Z,0
2016-09-12T02:47:40.836Z,0
2016-09-12T02:48:40.833Z,0
2016-09-12T02:49:40.509Z,0
2016-09-12T02:50:40.513Z,0
2016-09-12T02:51:40.493Z,0
2016-09-12T02:52:40.796Z,0
2016-09-12T02:53:40.492Z,0
2016-09-12T02:54:40.495Z,0
2016-09-12T02:55:40.494Z,0
2016-09-12T02:56:40.449Z,0
2016-09-12T02:57:40.830Z,0
2016-09-12T02:58:40.472Z,0
2016-09-12T02:59:40.508Z,0
2016-09-12T03:00:40.562Z,0
2016-09-12T03:01:40.721Z,0
2016-09-12T03:02:40.388Z,0
2016-09-12T03:03:41.224Z,0
2016-09-12T03:04:40.381Z,0
2016-09-12T03:05:41.485Z,0
2016-09-12T03:06:40.386Z,0
2016-09-12T03:07:40.396Z,0
2016-09-12T03:08:40.665Z,0
2016-09-12T03:09:40.651Z,0
2016-09-12T03:10:40.658Z,0
2016-09-12T03:11:40.324Z,0
2016-09-12T03:12:40.397Z,0
2016-09-12T03:13:40.330Z,0
2016-09-12T03:14:40.669Z,0
2016-09-12T03:15:40.596Z,0
2016-09-12T03:16:40.274Z,0
2016-09-12T03:17:40.722Z,0
2016-09-12T03:18:40.592Z,0
2016-09-12T03:19:40.343Z,0
2016-09-12T03:20:40.563Z,0
2016-09-12T03:21:40.241Z,0
2016-09-12T03:22:40.537Z,0
2016-09-12T03:23:40.217Z,0
2016-09-12T03:24:40.218Z,0
2016-09-12T03:25:40.510Z,0
2016-09-12T03:26:40.209Z,0
2016-09-12T03:27:40.503Z,0
2016-09-12T03:28:40.938Z,0
2016-09-12T03:29:40.182Z,0
2016-09-12T03:30:40.507Z,0
2016-09-12T03:31:40.571Z,0
2016-09-12T03:32:40.141Z,0
2016-09-12T03:33:40.128Z,0
2016-09-12T03:34:40.120Z,0
2016-09-12T03:35:40.110Z,0
2016-09-12T03:36:40.437Z,0
2016-09-12T03:37:40.771Z,0
2016-09-12T03:38:40.469Z,0
2016-09-12T03:39:40.385Z,0
2016-09-12T03:40:40.102Z,0
2016-09-12T03:41:40.097Z,0
2016-09-12T03:42:40.071Z,0
2016-09-12T03:43:40.048Z,0
2016-09-12T03:44:40.372Z,0
2016-09-12T03:45:40.071Z,0
2016-09-12T03:46:40.345Z,0
2016-09-12T03:47:40.072Z,0
2016-09-12T03:48:40.370Z,0
2016-09-12T03:49:39.979Z,0
2016-09-12T03:50:40.014Z,0
2016-09-12T03:51:40.298Z,0
2016-09-12T03:52:39.982Z,0
2016-09-12T03:53:39.954Z,0
2016-09-12T03:54:40.425Z,0
2016-09-12T03:55:39.924Z,0
2016-09-12T03:56:40.281Z,0
2016-09-12T03:57:39.916Z,0
2016-09-12T03:58:40.555Z,0
2016-09-12T03:59:39.891Z,0
2016-09-12T04:00:40.222Z,0
2016-09-12T04:01:40.189Z,0
2016-09-12T04:02:40.173Z,0
2016-09-12T04:03:39.894Z,0
2016-09-12T04:04:39.882Z,0
2016-09-12T04:05:39.863Z,0
2016-09-12T04:06:40.180Z,0
2016-09-12T04:07:39.849Z,0
2016-09-12T04:08:39.870Z,0
2016-09-12T04:09:39.865Z,0
2016-09-12T04:10:40.141Z,0
2016-09-12T04:11:39.858Z,0
2016-09-12T04:12:39.814Z,0
2016-09-12T04:13:40.121Z,0
2016-09-12T04:14:39.760Z,0
2016-09-12T04:15:40.149Z,0
2016-09-12T04:16:40.117Z,0
2016-09-12T04:17:40.408Z,0
2016-09-12T04:18:39.716Z,0
2016-09-12T04:19:40.050Z,0
2016-09-12T04:20:40.108Z,0
2016-09-12T04:21:39.736Z,0
2016-09-12T04:22:40.566Z,0
2016-09-12T04:23:39.736Z,0
2016-09-12T04:24:39.988Z,0
2016-09-12T04:25:39.993Z,0
2016-09-12T04:26:39.992Z,0
2016-09-12T04:27:39.989Z,0
2016-09-12T04:28:40.124Z,0
2016-09-12T04:29:39.651Z,0
2016-09-12T04:30:39.687Z,0
2016-09-12T04:31:39.939Z,0
2016-09-12T04:32:39.659Z,0
2016-09-12T04:33:39.976Z,0
2016-09-12T04:34:39.674Z,0
2016-09-12T04:35:40.285Z,0
2016-09-12T04:36:39.600Z,0
2016-09-12T04:37:39.641Z,0
2016-09-12T04:38:39.883Z,0
2016-09-12T04:39:39.536Z,0
2016-09-12T04:40:39.576Z,0
2016-09-12T04:41:39.690Z,0
2016-09-12T04:42:39.870Z,0
2016-09-12T04:43:40.156Z,0
2016-09-12T04:44:39.526Z,0
2016-09-12T04:45:39.798Z,0
2016-09-12T04:46:39.477Z,0
2016-09-12T04:47:39.474Z,0
2016-09-12T04:48:39.470Z,0
2016-09-12T04:49:39.612Z,0
2016-09-12T04:50:39.657Z,0
2016-09-12T04:51:39.743Z,0
2016-09-12T04:52:40.226Z,0
2016-09-12T04:53:39.471Z,0
2016-09-12T04:54:39.746Z,0
2016-09-12T04:55:39.387Z,0
2016-09-12T04:56:39.424Z,0
2016-09-12T04:57:39.368Z,0
2016-09-12T04:58:39.692Z,0
2016-09-12T04:59:39.696Z,0
2016-09-12T05:00:39.376Z,0
2016-09-12T05:01:39.658Z,0
2016-09-12T05:02:39.685Z,5
2016-09-12T05:03:39.412Z,5
2016-09-12T05:04:39.663Z,5
2016-09-12T05:05:39.512Z,5
2016-09-12T05:06:39.599Z,5
2016-09-12T05:07:39.641Z,5
2016-09-12T05:08:39.426Z,5
2016-09-12T05:09:39.339Z,5
2016-09-12T05:10:39.239Z,5
2016-09-12T05:11:39.785Z,5
2016-09-12T05:12:39.231Z,10
2016-09-12T05:13:39.218Z,10
2016-09-12T05:14:39.742Z,10
2016-09-12T05:15:39.239Z,10
2016-09-12T05:16:39.512Z,10
2016-09-12T05:17:40.893Z,10
2016-09-12T05:18:40.464Z,10
2016-09-12T05:19:39.804Z,10
2016-09-12T05:20:39.324Z,15
2016-09-12T05:21:39.799Z,15
2016-09-12T05:22:39.511Z,15
2016-09-12T05:23:39.562Z,15
2016-09-12T05:24:39.467Z,15
2016-09-12T05:25:39.378Z,15
2016-09-12T05:26:39.513Z,15
2016-09-12T05:27:39.422Z,20
2016-09-12T05:28:39.406Z,20
2016-09-12T05:29:39.110Z,20
2016-09-12T05:30:39.401Z,20
2016-09-12T05:31:39.952Z,20
2016-09-12T05:32:39.065Z,20
2016-09-12T05:33:39.414Z,20
2016-09-12T05:34:39.145Z,25
2016-09-12T05:35:40.298Z,25
2016-09-12T05:36:39.374Z,25
2016-09-12T05:37:39.565Z,25
2016-09-12T05:38:39.324Z,25
2016-09-12T05:39:38.996Z,25
2016-09-12T05:40:39.282Z,25
2016-09-12T05:41:39.291Z,30
2016-09-12T05:42:39.013Z,30
2016-09-12T05:43:39.626Z,30
2016-09-12T05:44:40.098Z,30
2016-09-12T05:45:39.197Z,30
2016-09-12T05:46:39.240Z,30
2016-09-12T05:47:38.964Z,30
2016-09-12T05:48:38.935Z,35
2016-09-12T05:49:39.096Z,35
2016-09-12T05:50:39.224Z,35
2016-09-12T05:51:38.908Z,35
2016-09-12T05:52:38.877Z,35
2016-09-12T05:53:38.902Z,35
2016-09-12T05:54:40.038Z,35
2016-09-12T05:55:39.204Z,40
2016-09-12T05:56:38.846Z,40
2016-09-12T05:57:38.813Z,40
2016-09-12T05:58:38.821Z,40
2016-09-12T05:59:38.861Z,40
2016-09-12T06:00:38.860Z,40
2016-09-12T06:01:39.488Z,45
2016-09-12T06:02:39.359Z,45
2016-09-12T06:03:38.785Z,45
2016-09-12T06:04:38.933Z,45
2016-09-12T06:05:38.790Z,45
2016-09-12T06:06:38.855Z,45
2016-09-12T06:07:38.781Z,45
2016-09-12T06:08:38.783Z,50
2016-09-12T06:10:00.650Z,50
2016-09-12T06:10:38.758Z,50
2016-09-12T06:11:40.295Z,50
2016-09-12T06:12:39.815Z,50
2016-09-12T06:13:41.354Z,50
2016-09-12T06:14:39.088Z,50
2016-09-12T06:15:39.351Z,55
2016-09-12T06:16:39.511Z,55
2016-09-12T06:17:38.650Z,55
2016-09-12T06:18:38.724Z,55
2016-09-12T06:19:38.957Z,55
2016-09-12T06:20:51.438Z,55
2016-09-12T06:23:07.119Z,60
2016-09-12T06:24:28.148Z,65
2016-09-12T06:24:39.289Z,60
2016-09-12T06:25:37.308Z,65
2016-09-12T06:26:37.275Z,65
2016-09-12T06:27:37.580Z,65
2016-09-12T06:28:36.946Z,60
2016-09-12T06:29:36.933Z,60
2016-09-12T06:30:36.931Z,65
2016-09-12T06:31:37.855Z,70
2016-09-12T06:32:37.229Z,70
2016-09-12T06:33:36.906Z,70
2016-09-12T06:34:37.230Z,70
2016-09-12T06:35:36.893Z,70
2016-09-12T06:36:37.124Z,70
2016-09-12T06:37:37.592Z,70
2016-09-12T06:38:37.169Z,70
2016-09-12T06:39:36.860Z,70
2016-09-12T06:40:38.326Z,70
2016-09-12T06:48:51.403Z,75
2016-09-12T06:58:57.961Z,80
2016-09-12T07:11:47.879Z,95
2016-09-12T13:10:55.377Z,1540
2016-09-12T13:11:55.703Z,1520
2016-09-12T13:12:55.720Z,1505
2016-09-12T13:13:55.716Z,1485
2016-09-12T13:14:55.408Z,1455
2016-09-12T13:15:55.943Z,1450
2016-09-12T13:16:56.365Z,1470
2016-09-12T13:17:56.279Z,1500
2016-09-12T13:18:55.762Z,1505
2016-09-12T13:19:55.764Z,1475
2016-09-12T13:20:55.750Z,1420
2016-09-12T13:21:55.750Z,1380
2016-09-12T13:22:56.441Z,1335
2016-09-12T13:23:55.465Z,1305
2016-09-12T13:24:55.459Z,1355
2016-09-12T13:25:55.469Z,1340
2016-09-12T13:26:55.796Z,1295
2016-09-12T13:27:55.788Z,1280
2016-09-12T13:28:55.517Z,1260
2016-09-12T13:29:55.500Z,1250
2016-09-12T13:30:55.799Z,1245
2016-09-12T13:31:55.813Z,1225
2016-09-12T13:32:56.146Z,1200
2016-09-12T13:33:55.520Z,1190
2016-09-12T13:34:55.835Z,1190
2016-09-12T13:35:55.878Z,1210
2016-09-12T13:36:55.855Z,1230
2016-09-12T13:37:55.545Z,1230
2016-09-12T13:38:55.550Z,1220
2016-09-12T13:39:55.551Z,1215
2016-09-12T13:40:55.570Z,1205
2016-09-12T13:41:56.193Z,1195
2016-09-12T13:42:55.575Z,1205
2016-09-12T13:43:56.692Z,1190
2016-09-12T13:44:56.556Z,1170
2016-09-12T13:45:55.596Z,1170
2016-09-12T13:46:56.551Z,1155
2016-09-12T13:47:55.602Z,1155
2016-09-12T13:48:56.257Z,1140
2016-09-12T13:49:55.941Z,1130
2016-09-12T13:50:55.942Z,1080
2016-09-12T13:51:55.946Z,1075
2016-09-12T13:52:56.266Z,1075
2016-09-12T13:53:55.643Z,1080
2016-09-12T13:54:57.041Z,1090
2016-09-12T13:55:55.995Z,1110
2016-09-12T13:56:56.326Z,1125
2016-09-12T13:57:55.984Z,1150
2016-09-12T13:58:56.632Z,1145
2016-09-12T13:59:55.679Z,1150
2016-09-12T14:00:55.688Z,1150
2016-09-12T14:01:56.695Z,1145
2016-09-12T14:02:56.001Z,1110
2016-09-12T14:03:56.325Z,1055
2016-09-12T14:04:56.032Z,1065
2016-09-12T14:05:56.039Z,1085
2016-09-12T14:06:55.718Z,1080
2016-09-12T14:07:56.069Z,1035
2016-09-12T14:08:56.373Z,1045
2016-09-12T14:09:56.079Z,1045
2016-09-12T14:10:55.746Z,1005
2016-09-12T14:11:55.757Z,1020
2016-09-12T14:12:56.065Z,1020
2016-09-12T14:13:56.090Z,1030
2016-09-12T14:14:55.746Z,1045
2016-09-12T14:15:56.384Z,1015
2016-09-12T14:16:56.078Z,985
2016-09-12T14:17:56.083Z,985
2016-09-12T14:18:55.787Z,1010
2016-09-12T14:19:55.775Z,1005
2016-09-12T14:20:56.107Z,1020
2016-09-12T14:21:55.796Z,1005
2016-09-12T14:23:10.942Z,995
2016-09-12T14:23:55.848Z,965
2016-09-12T14:24:56.119Z,945
2016-09-12T14:25:56.129Z,935
2016-09-12T14:26:56.756Z,915
2016-09-12T14:27:56.133Z,900
2016-09-12T14:28:55.862Z,870
2016-09-12T14:29:55.832Z,830
2016-09-12T14:30:56.153Z,850
2016-09-12T14:31:56.168Z,870
2016-09-12T14:32:55.853Z,870
2016-09-12T14:33:56.162Z,850
2016-09-12T14:34:56.795Z,830
2016-09-12T14:35:56.491Z,865
2016-09-12T14:36:55.870Z,880
2016-09-12T14:37:56.498Z,880
2016-09-12T14:38:56.207Z,910
2016-09-12T14:39:55.887Z,900
2016-09-12T14:40:56.829Z,860
2016-09-12T14:41:55.893Z,845
2016-09-12T14:42:55.896Z,855
2016-09-12T14:43:55.895Z,875
2016-09-12T14:44:56.528Z,895
2016-09-12T14:45:55.900Z,870
2016-09-12T14:46:56.225Z,845
2016-09-12T14:47:56.231Z,835
2016-09-12T14:48:56.234Z,835
2016-09-12T14:49:55.934Z,805
2016-09-12T14:50:56.554Z,770
2016-09-12T14:51:56.245Z,795
2016-09-12T14:52:56.569Z,820
2016-09-12T14:53:55.938Z,815
2016-09-12T14:54:55.957Z,325
2016-09-12T14:55:56.573Z,775
2016-09-12T14:56:55.954Z,745
2016-09-12T14:57:55.959Z,225
2016-09-12T14:58:55.963Z,225
2016-09-12T14:59:55.965Z,700
2016-09-12T15:00:55.968Z,730
2016-09-12T15:01:55.982Z,695
2016-09-12T15:02:56.281Z,670
2016-09-12T15:03:55.984Z,665
2016-09-12T15:04:55.983Z,705
2016-09-12T15:05:56.609Z,710
2016-09-12T15:06:55.993Z,655
2016-09-12T15:07:55.989Z,640
2016-09-12T15:08:56.620Z,640
2016-09-12T15:09:55.997Z,625
2016-09-12T15:10:56.327Z,620
2016-09-12T15:11:56.646Z,610
2016-09-12T15:12:56.323Z,570
2016-09-12T15:13:56.324Z,540
2016-09-12T15:14:56.322Z,555
2016-09-12T15:15:56.319Z,515
2016-09-12T15:16:56.332Z,455
2016-09-12T15:17:56.338Z,350
2016-09-12T15:18:56.336Z,535
2016-09-12T15:19:56.028Z,535
2016-09-12T15:20:56.027Z,565
2016-09-12T15:21:56.343Z,525
2016-09-12T15:22:56.039Z,495
2016-09-12T15:23:56.035Z,495
2016-09-12T15:24:56.373Z,485
2016-09-12T15:25:56.033Z,480
2016-09-12T15:26:56.044Z,490
2016-09-12T15:27:56.038Z,505
2016-09-12T15:28:56.049Z,485
2016-09-12T15:29:56.055Z,495
2016-09-12T15:30:56.378Z,490
2016-09-12T15:31:56.696Z,495
2016-09-12T15:32:56.059Z,490
2016-09-12T15:33:56.700Z,480
2016-09-12T15:34:56.065Z,475
2016-09-12T15:35:56.062Z,450
2016-09-12T15:36:56.065Z,445
2016-09-12T15:37:56.391Z,440
2016-09-12T15:38:56.385Z,435
2016-09-12T15:39:56.388Z,435
2016-09-12T15:40:56.399Z,435
2016-09-12T15:41:56.085Z,425
2016-09-12T15:42:56.090Z,430
2016-09-12T15:43:56.719Z,440
2016-09-12T15:44:56.082Z,440
2016-09-12T15:45:56.097Z,420
2016-09-12T15:46:56.097Z,400
2016-09-12T15:47:56.405Z,390
2016-09-12T15:48:56.108Z,385
2016-09-12T15:49:56.419Z,385
2016-09-12T15:50:56.107Z,375
2016-09-12T15:51:56.745Z,365
2016-09-12T15:52:56.756Z,355
2016-09-12T15:53:56.451Z,350
2016-09-12T15:54:56.446Z,350
2016-09-12T15:55:56.742Z,355
2016-09-12T15:56:56.127Z,350
2016-09-12T15:57:56.451Z,345
2016-09-12T15:58:56.826Z,340
2016-09-12T15:59:56.768Z,315
2016-09-12T16:00:56.765Z,300
2016-09-12T16:01:57.157Z,300
2016-09-12T16:02:56.799Z,295
2016-09-12T16:03:56.159Z,290
2016-09-12T16:04:56.457Z,285
2016-09-12T16:05:56.797Z,285
2016-09-12T16:06:56.464Z,270
2016-09-12T16:07:56.473Z,260
2016-09-12T16:08:56.145Z,250
2016-09-12T16:09:56.773Z,250
2016-09-12T16:10:56.780Z,235
2016-09-12T16:11:56.163Z,230
2016-09-12T16:12:57.093Z,210
2016-09-12T16:13:56.464Z,205
2016-09-12T16:14:56.791Z,200
2016-09-12T16:15:56.489Z,190
2016-09-12T16:16:56.388Z,155
2016-09-12T16:17:56.828Z,135
2016-09-12T16:18:56.806Z,165
2016-09-12T16:19:56.794Z,165
2016-09-12T16:20:56.809Z,130
2016-09-12T16:21:56.475Z,125
2016-09-12T16:22:57.190Z,125
2016-09-12T16:23:56.478Z,115
2016-09-12T16:24:56.159Z,105
2016-09-12T16:25:56.776Z,100
2016-09-12T16:26:56.497Z,100
2016-09-12T16:27:56.782Z,95
2016-09-12T16:28:56.473Z,100
2016-09-12T16:29:56.170Z,95
2016-09-12T16:30:56.478Z,95
2016-09-12T16:31:56.795Z,95
2016-09-12T16:32:56.172Z,90
2016-09-12T16:33:56.161Z,90
2016-09-12T16:34:56.171Z,90
2016-09-12T16:35:56.160Z,90
2016-09-12T16:36:56.475Z,85
2016-09-12T16:37:57.132Z,85
2016-09-12T16:38:57.448Z,85
2016-09-12T16:39:56.486Z,85
2016-09-12T16:40:56.477Z,80
2016-09-12T16:41:56.476Z,80
2016-09-12T16:42:56.467Z,80
2016-09-12T16:43:56.479Z,75
2016-09-12T16:44:56.467Z,75
2016-09-12T16:45:56.466Z,70
2016-09-12T16:46:56.156Z,70
2016-09-12T16:47:56.470Z,70
2016-09-12T16:48:56.491Z,65
2016-09-12T16:49:56.473Z,65
2016-09-12T16:50:56.148Z,65
2016-09-12T16:51:56.150Z,60
2016-09-12T16:52:56.457Z,60
2016-09-12T16:53:56.460Z,60
2016-09-12T16:54:56.149Z,60
2016-09-12T16:55:56.143Z,55
2016-09-12T16:56:56.145Z,55
2016-09-12T16:57:56.138Z,55
2016-09-12T16:58:56.136Z,50
2016-09-12T16:59:56.469Z,50
2016-09-12T17:00:56.145Z,50
2016-09-12T17:01:56.456Z,50
2016-09-12T17:02:56.147Z,50
2016-09-12T17:03:56.765Z,50
2016-09-12T17:04:56.132Z,50
2016-09-12T17:05:56.752Z,45
2016-09-12T17:06:56.436Z,45
2016-09-12T17:07:56.437Z,45
2016-09-12T17:08:56.430Z,40
2016-09-12T17:09:56.448Z,40
2016-09-12T17:10:56.434Z,40
2016-09-12T17:11:56.437Z,40
2016-09-12T17:12:56.433Z,35
2016-09-12T17:13:56.426Z,35
2016-09-12T17:14:56.731Z,35
2016-09-12T17:15:56.729Z,35
2016-09-12T17:16:56.422Z,30
2016-09-12T17:17:56.722Z,30
2016-09-12T17:18:56.414Z,30
2016-09-12T17:19:56.407Z,30
2016-09-12T17:20:56.410Z,25
2016-09-12T17:21:56.089Z,25
2016-09-12T17:22:56.081Z,25
2016-09-12T17:23:56.093Z,25
2016-09-12T17:24:56.401Z,25
2016-09-12T17:25:56.078Z,20
2016-09-12T17:26:56.394Z,20
2016-09-12T17:27:56.400Z,20
2016-09-12T17:28:56.062Z,20
2016-09-12T17:29:56.373Z,20
2016-09-12T17:30:56.386Z,15
2016-09-12T17:31:56.058Z,15
2016-09-12T17:32:56.059Z,15
2016-09-12T17:33:56.991Z,15
2016-09-12T17:34:56.062Z,15
2016-09-12T17:35:56.038Z,10
2016-09-12T17:36:56.366Z,10
2016-09-12T17:37:56.661Z,10
2016-09-12T17:38:56.361Z,10
2016-09-12T17:39:56.029Z,10
2016-09-12T17:40:56.333Z,10
2016-09-12T17:41:56.339Z,10
2016-09-12T17:42:56.017Z,5
2016-09-12T17:43:56.333Z,5
2016-09-12T17:44:56.022Z,5
2016-09-12T17:45:56.013Z,5
2016-09-12T17:46:56.009Z,5
2016-09-12T17:47:56.648Z,5
2016-09-12T17:48:55.998Z,5
2016-09-12T17:49:56.621Z,5
2016-09-12T17:50:56.311Z,0
2016-09-12T17:51:56.941Z,0
2016-09-12T17:52:55.988Z,0
2016-09-12T17:53:57.029Z,0
2016-09-12T17:54:55.985Z,0
2016-09-12T17:55:55.987Z,0
2016-09-12T17:56:55.967Z,0
2016-09-12T17:57:56.281Z,0
2016-09-12T17:58:56.281Z,0
2016-09-12T17:59:55.966Z,0
2016-09-12T18:00:55.962Z,0
2016-09-12T18:01:56.319Z,0
2016-09-12T18:02:55.961Z,0
2016-09-12T18:03:55.944Z,0
2016-09-12T18:04:56.256Z,0
2016-09-12T18:05:55.947Z,0
2016-09-12T18:06:56.248Z,0
2016-09-12T18:07:55.930Z,0
2016-09-12T18:08:55.944Z,0
2016-09-12T18:09:55.935Z,0
2016-09-12T18:10:56.569Z,0
2016-09-12T18:11:55.937Z,0
2016-09-12T18:12:56.538Z,0
2016-09-12T18:13:56.929Z,0
2016-09-12T18:14:56.553Z,0
2016-09-12T18:15:56.858Z,0
2016-09-12T18:16:55.921Z,0
2016-09-12T18:17:56.217Z,0
2016-09-12T18:18:56.524Z,0
2016-09-12T18:19:56.196Z,0
2016-09-12T18:20:56.534Z,0
2016-09-12T18:21:56.188Z,0
2016-09-12T18:22:55.875Z,0
2016-09-12T18:23:56.182Z,0
2016-09-12T18:24:56.175Z,0
2016-09-12T18:25:55.860Z,0
2016-09-12T18:26:56.166Z,0
2016-09-12T18:27:56.164Z,0
2016-09-12T18:28:56.166Z,0
2016-09-12T18:29:55.845Z,0
2016-09-12T18:30:56.149Z,0
2016-09-12T18:31:56.144Z,0
2016-09-12T18:32:55.835Z,0
2016-09-12T18:33:56.135Z,0
2016-09-12T18:34:56.135Z,0
2016-09-12T18:35:55.823Z,0
2016-09-12T18:36:55.814Z,0
2016-09-12T18:37:56.119Z,0
2016-09-12T18:38:56.118Z,0
2016-09-12T18:39:55.809Z,0
2016-09-12T18:40:56.435Z,0
2016-09-12T18:41:56.413Z,0
2016-09-12T18:42:56.413Z,0
2016-09-12T18:43:56.087Z,0
2016-09-12T18:44:55.774Z,0
2016-09-12T18:45:55.769Z,0
2016-09-12T18:46:55.765Z,0
2016-09-12T18:47:55.769Z,0
2016-09-12T18:48:56.397Z,0
2016-09-12T18:49:55.756Z,0
2016-09-12T18:50:55.748Z,0
2016-09-12T18:51:55.739Z,0
2016-09-12T18:52:56.054Z,0
2016-09-12T18:53:55.740Z,0
2016-09-12T18:54:55.738Z,0
2016-09-12T18:55:56.044Z,0
2016-09-12T18:56:55.722Z,0
2016-09-12T18:57:55.723Z,0
2016-09-12T18:58:56.028Z,0
2016-09-12T18:59:55.709Z,0
2016-09-12T19:00:55.710Z,0
2016-09-12T19:01:56.014Z,0
2016-09-12T19:02:56.013Z,0
2016-09-12T19:03:56.627Z,0
2016-09-12T19:04:56.002Z,0
2016-09-12T19:05:56.005Z,0
2016-09-12T19:06:56.311Z,0
2016-09-12T19:07:55.678Z,0
2016-09-12T19:08:56.047Z,0
2016-09-12T19:09:55.974Z,0
2016-09-12T19:10:56.300Z,0
2016-09-12T19:11:56.290Z,0
2016-09-12T19:12:55.962Z,0
2016-09-12T19:13:55.953Z,0
2016-09-12T19:14:56.273Z,0
2016-09-12T19:15:55.627Z,0
2016-09-12T19:16:55.631Z,0
2016-09-12T19:17:55.626Z,0
2016-09-12T19:18:55.934Z,0
2016-09-12T19:19:55.934Z,0
2016-09-12T19:20:55.608Z,0
2016-09-12T19:21:55.921Z,0
2016-09-12T19:22:55.600Z,0
2016-09-12T19:23:55.920Z,0
2016-09-12T19:24:56.219Z,0
2016-09-12T19:25:55.897Z,0
2016-09-12T19:26:55.580Z,0
2016-09-12T19:27:55.886Z,0
2016-09-12T19:28:56.516Z,0
2016-09-12T19:29:55.876Z,0
2016-09-12T19:30:55.577Z,0
2016-09-12T19:31:55.869Z,0
2016-09-12T19:32:56.175Z,0
2016-09-12T19:33:55.550Z,0
2016-09-12T19:34:56.173Z,0
2016-09-12T19:35:56.153Z,0
2016-09-12T19:36:56.155Z,0
2016-09-12T19:37:55.873Z,0
2016-09-12T19:38:56.145Z,0
2016-09-12T19:39:55.517Z,0
2016-09-12T19:40:55.507Z,0
2016-09-12T19:41:55.820Z,0
2016-09-12T19:42:55.502Z,0
2016-09-12T19:43:55.493Z,0
2016-09-12T19:44:56.114Z,0
2016-09-12T19:45:55.794Z,0
2016-09-12T19:46:55.792Z,0
2016-09-12T19:47:55.466Z,0
2016-09-12T19:48:55.484Z,0
2016-09-12T19:49:55.469Z,0
2016-09-12T19:50:55.465Z,0
2016-09-12T19:51:55.775Z,0
2016-09-12T19:52:56.084Z,0
2016-09-12T19:53:55.451Z,0
2016-09-12T19:54:56.121Z,0
2016-09-12T19:55:55.765Z,0
2016-09-12T19:56:55.433Z,0
2016-09-12T19:57:55.735Z,0
2016-09-12T19:58:55.741Z,0
2016-09-12T19:59:55.412Z,0
2016-09-12T20:00:55.723Z,0
2016-09-12T20:01:55.721Z,0
2016-09-12T20:02:55.399Z,0
2016-09-12T20:03:55.708Z,0
2016-09-12T20:04:55.399Z,0
2016-09-12T20:05:55.379Z,0
2016-09-12T20:06:55.399Z,0
2016-09-12T20:07:55.681Z,0
2016-09-12T20:08:55.703Z,0
2016-09-12T20:09:55.687Z,0
2016-09-12T20:10:55.359Z,0
2016-09-12T20:11:55.359Z,0
2016-09-12T20:12:55.349Z,0
2016-09-12T20:13:55.673Z,0
2016-09-12T20:14:55.648Z,0
2016-09-12T20:15:55.333Z,0
2016-09-12T20:16:55.335Z,0
2016-09-12T20:17:55.326Z,0
2016-09-12T20:18:55.331Z,0
2016-09-12T20:19:55.319Z,0
2016-09-12T20:20:55.313Z,0
2016-09-12T20:21:55.617Z,0
2016-09-12T20:22:55.304Z,0
2016-09-12T20:23:55.796Z,0
2016-09-12T20:24:55.601Z,0
2016-09-12T20:25:55.905Z,0
2016-09-12T20:26:55.276Z,0
2016-09-12T20:27:55.269Z,0
2016-09-12T20:28:55.277Z,0
2016-09-12T20:29:55.262Z,0
2016-09-12T20:30:55.567Z,0
2016-09-12T20:31:55.562Z,0
2016-09-12T20:32:55.558Z,0
2016-09-12T20:33:55.232Z,0
2016-09-12T20:34:55.559Z,0
2016-09-12T20:35:55.221Z,0
2016-09-12T20:36:55.559Z,0
2016-09-12T20:37:55.582Z,0
2016-09-12T20:38:55.525Z,0
2016-09-12T20:39:55.528Z,0
2016-09-12T20:40:55.251Z,0
2016-09-12T20:41:55.191Z,0
2016-09-12T20:42:55.501Z,0
2016-09-12T20:43:55.822Z,0
2016-09-12T20:44:55.187Z,0
2016-09-12T20:45:55.171Z,0
2016-09-12T20:46:55.509Z,0
2016-09-12T20:47:55.162Z,0
2016-09-12T20:48:55.155Z,0
2016-09-12T20:49:55.154Z,0
2016-09-12T20:50:55.520Z,0